createdAt,value
2023-04-19T00:00:52.560Z,9.45
2023-04-19T00:01:55.679Z,9.46
2023-04-19T00:02:57.774Z,9.48
2023-04-19T00:04:00.903Z,9.49
2023-04-19T00:05:03.030Z,9.47
2023-04-19T00:06:08.306Z,9.46
2023-04-19T00:07:10.147Z,9.43
2023-04-19T00:08:13.022Z,9.40
2023-04-19T00:09:16.174Z,9.38
2023-04-19T00:10:19.150Z,9.37
2023-04-19T00:11:21.234Z,9.37
2023-04-19T00:12:24.592Z,9.39
2023-04-19T00:13:26.377Z,9.40
2023-04-19T00:14:29.297Z,9.39
2023-04-19T00:15:31.167Z,9.37
2023-04-19T00:16:33.996Z,9.37
2023-04-19T00:17:36.280Z,9.36
2023-04-19T00:18:39.549Z,9.32
2023-04-19T00:19:41.845Z,9.30
2023-04-19T00:20:45.440Z,9.30
2023-04-19T00:21:47.444Z,9.32
2023-04-19T00:22:50.233Z,9.33
2023-04-19T00:23:54.001Z,9.34
2023-04-19T00:24:58.147Z,9.36
2023-04-19T00:26:02.689Z,9.38
2023-04-19T00:27:05.974Z,9.37
2023-04-19T00:28:07.877Z,9.38
2023-04-19T00:29:11.106Z,9.36
2023-04-19T00:30:14.197Z,9.35
2023-04-19T00:31:17.055Z,9.34
2023-04-19T00:32:18.889Z,9.33
2023-04-19T00:33:22.777Z,9.32
2023-04-19T00:34:27.762Z,9.33
2023-04-19T00:35:31.635Z,9.28
2023-04-19T00:36:33.546Z,9.23
2023-04-19T00:37:36.348Z,9.20
2023-04-19T00:38:39.493Z,9.18
2023-04-19T00:39:42.353Z,9.16
2023-04-19T00:40:46.645Z,9.14
2023-04-19T00:41:49.429Z,9.10
2023-04-19T00:42:53.578Z,9.06
2023-04-19T00:43:56.409Z,9.04
2023-04-19T00:44:58.229Z,9.00
2023-04-19T00:46:01.590Z,8.97
2023-04-19T00:47:03.585Z,8.93
2023-04-19T00:48:06.662Z,8.91
2023-04-19T00:49:09.669Z,8.87
2023-04-19T00:50:13.269Z,8.80
2023-04-19T00:51:15.627Z,8.77
2023-04-19T00:52:19.816Z,8.74
2023-04-19T00:53:21.621Z,8.72
2023-04-19T00:54:24.727Z,8.69
2023-04-19T00:55:26.732Z,8.68
2023-04-19T00:56:31.040Z,8.65
2023-04-19T00:57:33.005Z,8.60
2023-04-19T00:58:36.411Z,8.57
2023-04-19T00:59:39.080Z,8.55
2023-04-19T01:00:42.135Z,8.54
2023-04-19T01:01:44.037Z,8.53
2023-04-19T01:02:47.432Z,8.53
2023-04-19T01:03:49.590Z,8.53
2023-04-19T01:04:52.783Z,8.51
2023-04-19T01:05:54.942Z,8.51
2023-04-19T01:06:57.882Z,8.50
2023-04-19T01:08:00.025Z,8.50
2023-04-19T01:09:02.898Z,8.50
2023-04-19T01:10:06.063Z,8.49
2023-04-19T01:11:09.129Z,8.48
2023-04-19T01:12:13.348Z,8.48
2023-04-19T01:13:18.960Z,8.47
2023-04-19T01:14:20.872Z,8.47
2023-04-19T01:15:23.677Z,8.47
2023-04-19T01:16:26.616Z,8.47
2023-04-19T01:17:30.690Z,8.47
2023-04-19T01:18:37.389Z,8.48
2023-04-19T01:19:41.001Z,8.46
2023-04-19T01:20:43.137Z,8.46
2023-04-19T01:21:46.333Z,8.47
2023-04-19T01:22:49.545Z,8.46
2023-04-19T01:23:53.175Z,8.43
2023-04-19T01:24:54.997Z,8.43
2023-04-19T01:25:57.970Z,8.43
2023-04-19T01:27:00.983Z,8.43
2023-04-19T01:28:04.255Z,8.42
2023-04-19T01:29:06.070Z,8.40
2023-04-19T01:30:10.444Z,8.39
2023-04-19T01:31:12.336Z,8.39
2023-04-19T01:32:15.163Z,8.40
2023-04-19T01:33:17.456Z,8.41
2023-04-19T01:34:20.314Z,8.39
2023-04-19T01:35:22.114Z,8.37
2023-04-19T01:36:24.984Z,8.36
2023-04-19T01:37:26.806Z,8.34
2023-04-19T01:38:31.039Z,8.32
2023-04-19T01:39:33.278Z,8.29
2023-04-19T01:40:36.731Z,8.27
2023-04-19T01:41:39.900Z,8.26
2023-04-19T01:42:43.082Z,8.25
2023-04-19T01:43:44.937Z,8.22
2023-04-19T01:44:47.690Z,8.20
2023-04-19T01:45:49.554Z,8.21
2023-04-19T01:46:52.571Z,8.20
2023-04-19T01:47:55.968Z,8.20
2023-04-19T01:48:58.809Z,8.20
2023-04-19T01:50:00.749Z,8.21
2023-04-19T01:51:03.581Z,8.22
2023-04-19T01:52:05.616Z,8.21
2023-04-19T01:53:08.366Z,8.20
2023-04-19T01:54:11.535Z,8.20
2023-04-19T01:55:14.430Z,8.19
2023-04-19T01:56:16.221Z,8.18
2023-04-19T01:57:19.790Z,8.17
2023-04-19T01:58:22.665Z,8.15
2023-04-19T01:59:25.542Z,8.14
2023-04-19T02:00:27.326Z,8.15
2023-04-19T02:01:30.434Z,8.14
2023-04-19T02:02:33.668Z,8.14
2023-04-19T02:03:37.077Z,8.15
2023-04-19T02:04:39.359Z,8.14
2023-04-19T02:05:42.355Z,8.16
2023-04-19T02:06:44.182Z,8.14
2023-04-19T02:07:47.067Z,8.13
2023-04-19T02:08:48.885Z,8.13
2023-04-19T02:09:53.010Z,8.14
2023-04-19T02:10:54.945Z,8.13
2023-04-19T02:11:57.723Z,8.14
2023-04-19T02:12:59.575Z,8.14
2023-04-19T02:14:03.776Z,8.14
2023-04-19T02:15:06.848Z,8.14
2023-04-19T02:16:12.729Z,8.12
2023-04-19T02:17:14.671Z,8.12
2023-04-19T02:18:17.539Z,8.12
2023-04-19T02:19:19.337Z,8.13
2023-04-19T02:20:22.125Z,8.11
2023-04-19T02:21:24.255Z,8.11
2023-04-19T02:22:27.029Z,8.12
2023-04-19T02:23:29.521Z,8.13
2023-04-19T02:24:32.327Z,8.13
2023-04-19T02:25:35.554Z,8.13
2023-04-19T02:26:38.424Z,8.13
2023-04-19T02:27:40.277Z,8.11
2023-04-19T02:28:43.113Z,8.12
2023-04-19T02:29:45.414Z,8.13
2023-04-19T02:30:48.264Z,8.13
2023-04-19T02:31:50.498Z,8.12
2023-04-19T02:32:54.900Z,8.12
2023-04-19T02:33:56.856Z,8.10
2023-04-19T02:34:59.652Z,8.09
2023-04-19T02:36:01.509Z,8.08
2023-04-19T02:37:04.493Z,8.08
2023-04-19T02:38:06.421Z,8.06
2023-04-19T02:39:09.503Z,8.07
2023-04-19T02:40:13.382Z,8.05
2023-04-19T02:41:17.513Z,8.05
2023-04-19T02:42:19.402Z,8.05
2023-04-19T02:43:22.207Z,8.07
2023-04-19T02:44:24.536Z,8.05
2023-04-19T02:45:27.695Z,8.06
2023-04-19T02:46:30.075Z,8.05
2023-04-19T02:47:33.046Z,8.05
2023-04-19T02:48:34.925Z,8.06
2023-04-19T02:49:41.625Z,8.06
2023-04-19T02:50:44.745Z,8.06
2023-04-19T02:51:48.411Z,8.06
2023-04-19T02:52:50.211Z,8.06
2023-04-19T02:53:53.782Z,8.06
2023-04-19T02:54:56.093Z,8.08
2023-04-19T02:55:59.060Z,8.09
2023-04-19T02:57:02.348Z,8.07
2023-04-19T02:58:05.166Z,8.05
2023-04-19T02:59:10.567Z,8.04
2023-04-19T03:00:14.286Z,8.03
2023-04-19T03:01:23.400Z,8.03
2023-04-19T03:02:26.545Z,8.05
2023-04-19T03:03:28.682Z,8.05
2023-04-19T03:04:32.263Z,8.04
2023-04-19T03:05:34.150Z,8.04
2023-04-19T03:06:37.771Z,8.04
2023-04-19T03:07:41.500Z,8.04
2023-04-19T03:08:46.330Z,8.05
2023-04-19T03:09:48.304Z,8.05
2023-04-19T03:10:51.142Z,8.07
2023-04-19T03:11:53.252Z,8.08
2023-04-19T03:12:57.418Z,8.08
2023-04-19T03:13:59.358Z,8.08
2023-04-19T03:15:02.173Z,8.08
2023-04-19T03:16:04.428Z,8.08
2023-04-19T03:17:08.293Z,8.09
2023-04-19T03:18:12.228Z,8.09
2023-04-19T03:19:17.848Z,8.09
2023-04-19T03:20:24.024Z,8.09
2023-04-19T03:21:29.146Z,8.07
2023-04-19T03:22:31.323Z,8.04
2023-04-19T03:23:34.147Z,8.04
2023-04-19T03:24:38.125Z,8.01
2023-04-19T03:26:01.345Z,8.01
2023-04-19T03:27:23.478Z,7.98
2023-04-19T03:28:33.465Z,7.97
2023-04-19T03:29:49.092Z,7.95
2023-04-19T03:30:51.173Z,7.97
2023-04-19T03:31:54.473Z,7.97
2023-04-19T03:32:56.696Z,8.00
2023-04-19T03:33:59.748Z,8.00
2023-04-19T03:35:07.728Z,8.00
2023-04-19T03:36:10.702Z,7.99
2023-04-19T03:37:16.521Z,7.97
2023-04-19T03:38:19.339Z,7.98
2023-04-19T03:39:21.482Z,8.00
2023-04-19T03:40:27.370Z,8.01
2023-04-19T03:41:29.272Z,8.03
2023-04-19T03:42:45.319Z,8.03
2023-04-19T03:43:55.949Z,8.04
2023-04-19T03:45:00.429Z,8.04
2023-04-19T03:46:03.976Z,8.05
2023-04-19T03:47:07.013Z,8.06
2023-04-19T03:48:15.443Z,8.06
2023-04-19T03:49:18.386Z,8.06
2023-04-19T03:50:25.375Z,8.06
2023-04-19T03:51:31.537Z,8.07
2023-04-19T03:52:33.783Z,8.07
2023-04-19T03:53:38.208Z,8.07
2023-04-19T03:54:40.037Z,8.05
2023-04-19T03:55:49.020Z,8.04
2023-04-19T03:56:51.599Z,8.05
2023-04-19T03:57:54.771Z,8.04
2023-04-19T03:59:11.045Z,8.04
2023-04-19T04:00:16.608Z,8.04
2023-04-19T04:01:18.973Z,8.05
2023-04-19T04:02:22.343Z,8.04
2023-04-19T04:03:24.658Z,8.06
2023-04-19T04:04:28.042Z,8.05
2023-04-19T04:05:30.420Z,8.05
2023-04-19T04:06:33.193Z,8.06
2023-04-19T04:07:35.061Z,8.06
2023-04-19T04:08:38.853Z,8.06
2023-04-19T04:09:40.762Z,8.01
2023-04-19T04:10:43.578Z,7.99
2023-04-19T04:11:46.032Z,7.95
2023-04-19T04:12:48.952Z,7.91
2023-04-19T04:13:57.928Z,7.87
2023-04-19T04:15:10.112Z,7.84
2023-04-19T04:16:17.161Z,7.82
2023-04-19T04:17:20.203Z,7.80
2023-04-19T04:18:22.200Z,7.78
2023-04-19T04:19:25.793Z,7.75
2023-04-19T04:20:27.648Z,7.73
2023-04-19T04:21:37.187Z,7.72
2023-04-19T04:22:42.219Z,7.69
2023-04-19T04:23:47.185Z,7.70
2023-04-19T04:24:58.176Z,7.68
2023-04-19T04:26:09.911Z,7.67
2023-04-19T04:27:30.343Z,7.63
2023-04-19T04:28:33.492Z,7.63
2023-04-19T04:29:36.780Z,7.62
2023-04-19T04:30:43.100Z,7.61
2023-04-19T04:31:46.969Z,7.61
2023-04-19T04:32:53.051Z,7.60
2023-04-19T04:33:55.300Z,7.59
2023-04-19T04:34:58.265Z,7.60
2023-04-19T04:36:11.966Z,7.58
2023-04-19T04:37:16.222Z,7.57
2023-04-19T04:38:24.505Z,7.55
2023-04-19T04:39:28.065Z,7.54
2023-04-19T04:40:29.896Z,7.54
2023-04-19T04:41:33.205Z,7.54
2023-04-19T04:42:35.649Z,7.55
2023-04-19T04:43:39.644Z,7.57
2023-04-19T04:44:42.173Z,7.57
2023-04-19T04:45:48.302Z,7.58
2023-04-19T04:46:50.997Z,7.60
2023-04-19T04:48:00.277Z,7.60
2023-04-19T04:49:02.170Z,7.60
2023-04-19T04:50:06.011Z,7.61
2023-04-19T04:51:08.927Z,7.61
2023-04-19T04:52:12.289Z,7.61
2023-04-19T04:53:26.997Z,7.65
2023-04-19T04:54:30.500Z,7.66
2023-04-19T04:55:34.276Z,7.67
2023-04-19T04:56:37.355Z,7.70
2023-04-19T04:57:39.558Z,7.68
2023-04-19T04:58:45.617Z,7.68
2023-04-19T04:59:52.491Z,7.65
2023-04-19T05:01:02.904Z,7.63
2023-04-19T05:02:08.096Z,7.61
2023-04-19T05:03:11.274Z,7.63
2023-04-19T05:04:21.748Z,7.65
2023-04-19T05:05:23.788Z,7.67
2023-04-19T05:06:27.243Z,7.68
2023-04-19T05:07:29.457Z,7.71
2023-04-19T05:08:34.841Z,7.71
2023-04-19T05:09:50.423Z,7.72
2023-04-19T05:10:58.765Z,7.72
2023-04-19T05:12:04.781Z,7.74
2023-04-19T05:13:07.637Z,7.77
2023-04-19T05:14:09.890Z,7.78
2023-04-19T05:15:13.024Z,7.79
2023-04-19T05:16:21.554Z,7.81
2023-04-19T05:17:25.591Z,7.83
2023-04-19T05:18:27.541Z,7.87
2023-04-19T05:19:31.139Z,7.91
2023-04-19T05:20:40.461Z,7.91
2023-04-19T05:21:50.547Z,7.95
2023-04-19T05:22:58.289Z,7.98
2023-04-19T05:24:01.138Z,8.01
2023-04-19T05:25:03.254Z,8.03
2023-04-19T05:26:06.588Z,8.05
2023-04-19T05:27:09.473Z,8.07
2023-04-19T05:28:12.249Z,8.09
2023-04-19T05:29:33.125Z,8.10
2023-04-19T05:30:35.027Z,8.09
2023-04-19T05:31:39.465Z,8.09
2023-04-19T05:33:05.304Z,8.07
2023-04-19T05:34:07.605Z,8.08
2023-04-19T05:35:11.293Z,8.10
2023-04-19T05:36:13.171Z,8.14
2023-04-19T05:37:16.238Z,8.17
2023-04-19T05:38:18.764Z,8.18
2023-04-19T05:39:21.664Z,8.19
2023-04-19T05:40:24.315Z,8.21
2023-04-19T05:41:27.657Z,8.23
2023-04-19T05:42:29.484Z,8.25
2023-04-19T05:43:32.695Z,8.27
2023-04-19T05:44:34.883Z,8.28
2023-04-19T05:45:37.969Z,8.31
2023-04-19T05:46:41.537Z,8.30
2023-04-19T05:47:48.388Z,8.29
2023-04-19T05:49:14.298Z,8.29
2023-04-19T05:50:36.334Z,8.25
2023-04-19T05:51:58.252Z,8.22
2023-04-19T05:53:09.611Z,8.21
2023-04-19T05:54:13.736Z,8.21
2023-04-19T05:55:21.994Z,8.19
2023-04-19T05:56:23.921Z,8.16
2023-04-19T05:57:27.063Z,8.12
2023-04-19T05:58:28.976Z,8.09
2023-04-19T05:59:32.143Z,8.05
2023-04-19T06:00:35.081Z,8.04
2023-04-19T06:01:45.019Z,8.01
2023-04-19T06:02:48.447Z,8.00
2023-04-19T06:03:53.455Z,8.00
2023-04-19T06:04:58.408Z,7.99
2023-04-19T06:06:03.516Z,7.98
2023-04-19T06:07:08.176Z,7.99
2023-04-19T06:08:17.640Z,7.98
2023-04-19T06:09:19.616Z,7.96
2023-04-19T06:10:22.540Z,7.90
2023-04-19T06:11:29.195Z,7.87
2023-04-19T06:12:38.455Z,7.82
2023-04-19T06:13:40.375Z,7.78
2023-04-19T06:14:43.248Z,7.75
2023-04-19T06:15:46.194Z,7.73
2023-04-19T06:16:50.930Z,7.71
2023-04-19T06:17:52.786Z,7.68
2023-04-19T06:18:56.253Z,7.65
2023-04-19T06:20:00.990Z,7.61
2023-04-19T06:21:03.011Z,7.60
2023-04-19T06:22:06.070Z,7.63
2023-04-19T06:23:07.898Z,7.68
2023-04-19T06:24:11.124Z,7.73
2023-04-19T06:25:15.034Z,7.75
2023-04-19T06:26:17.802Z,7.77
2023-04-19T06:27:20.572Z,7.78
2023-04-19T06:28:22.414Z,7.81
2023-04-19T06:29:25.750Z,7.82
2023-04-19T06:30:27.558Z,7.82
2023-04-19T06:31:30.874Z,7.83
2023-04-19T06:32:35.105Z,7.85
2023-04-19T06:33:39.037Z,7.88
2023-04-19T06:34:40.922Z,7.95
2023-04-19T06:35:43.689Z,8.01
2023-04-19T06:36:45.549Z,8.06
2023-04-19T06:37:49.445Z,8.12
2023-04-19T06:38:52.677Z,8.16
2023-04-19T06:39:55.573Z,8.16
2023-04-19T06:40:57.409Z,8.14
2023-04-19T06:42:00.232Z,8.12
2023-04-19T06:43:05.882Z,8.09
2023-04-19T06:44:08.941Z,8.07
2023-04-19T06:45:11.853Z,8.06
2023-04-19T06:46:14.699Z,8.02
2023-04-19T06:47:17.071Z,7.99
2023-04-19T06:48:21.186Z,7.96
2023-04-19T06:49:22.968Z,7.94
2023-04-19T06:50:27.053Z,7.90
2023-04-19T06:51:30.397Z,7.90
2023-04-19T06:52:32.210Z,7.87
2023-04-19T06:53:35.601Z,7.85
2023-04-19T06:54:37.453Z,7.83
2023-04-19T06:55:40.629Z,7.81
2023-04-19T06:56:45.675Z,7.80
2023-04-19T06:57:48.612Z,7.77
2023-04-19T06:58:51.386Z,7.75
2023-04-19T06:59:54.352Z,7.74
2023-04-19T07:00:57.643Z,7.75
2023-04-19T07:02:00.532Z,7.75
2023-04-19T07:03:02.987Z,7.76
2023-04-19T07:04:07.722Z,7.77
2023-04-19T07:05:12.816Z,7.73
2023-04-19T07:06:15.690Z,7.74
2023-04-19T07:07:18.462Z,7.77
2023-04-19T07:08:21.240Z,7.76
2023-04-19T07:09:23.161Z,7.75
2023-04-19T07:10:25.990Z,7.75
2023-04-19T07:11:27.809Z,7.76
2023-04-19T07:12:30.622Z,7.77
2023-04-19T07:13:32.486Z,7.80
2023-04-19T07:14:35.254Z,7.82
2023-04-19T07:15:37.417Z,7.86
2023-04-19T07:16:40.269Z,7.90
2023-04-19T07:17:43.063Z,7.93
2023-04-19T07:18:45.002Z,7.99
2023-04-19T07:19:49.967Z,8.02
2023-04-19T07:20:52.717Z,8.06
2023-04-19T07:21:56.039Z,8.08
2023-04-19T07:22:58.202Z,8.11
2023-04-19T07:24:01.134Z,8.13
2023-04-19T07:25:04.397Z,8.17
2023-04-19T07:26:06.464Z,8.20
2023-04-19T07:27:09.801Z,8.23
2023-04-19T07:28:13.024Z,8.25
2023-04-19T07:29:15.821Z,8.26
2023-04-19T07:30:18.610Z,8.29
2023-04-19T07:31:21.715Z,8.30
2023-04-19T07:32:24.624Z,8.28
2023-04-19T07:33:28.391Z,8.27
2023-04-19T07:34:30.424Z,8.25
2023-04-19T07:35:34.738Z,8.26
2023-04-19T07:36:37.984Z,8.28
2023-04-19T07:37:39.838Z,8.34
2023-04-19T07:38:42.580Z,8.37
2023-04-19T07:39:45.345Z,8.42
2023-04-19T07:40:47.386Z,8.44
2023-04-19T07:41:50.224Z,8.45
2023-04-19T07:42:52.160Z,8.44
2023-04-19T07:43:55.194Z,8.44
2023-04-19T07:44:57.062Z,8.48
2023-04-19T07:45:59.926Z,8.52
2023-04-19T07:47:03.002Z,8.56
2023-04-19T07:48:06.591Z,8.62
2023-04-19T07:49:08.403Z,8.68
2023-04-19T07:50:12.466Z,8.71
2023-04-19T07:51:17.818Z,8.73
2023-04-19T07:52:19.792Z,8.73
2023-04-19T07:53:22.997Z,8.71
2023-04-19T07:54:25.864Z,8.68
2023-04-19T07:55:28.741Z,8.67
2023-04-19T07:56:30.834Z,8.69
2023-04-19T07:57:33.666Z,8.71
2023-04-19T07:58:36.873Z,8.73
2023-04-19T07:59:39.062Z,8.73
2023-04-19T08:00:41.833Z,8.70
2023-04-19T08:01:44.998Z,8.67
2023-04-19T08:02:48.826Z,8.63
2023-04-19T08:03:52.396Z,8.62
2023-04-19T08:04:54.610Z,8.61
2023-04-19T08:05:58.052Z,8.57
2023-04-19T08:07:01.240Z,8.50
2023-04-19T08:08:04.019Z,8.44
2023-04-19T08:09:06.114Z,8.39
2023-04-19T08:10:10.221Z,8.35
2023-04-19T08:11:12.985Z,8.30
2023-04-19T08:12:30.316Z,8.25
2023-04-19T08:13:37.866Z,8.19
2023-04-19T08:14:56.231Z,8.17
2023-04-19T08:16:40.269Z,8.13
2023-04-19T08:17:31.550Z,8.09
2023-04-19T08:18:40.366Z,8.07
2023-04-19T08:19:43.192Z,8.07
2023-04-19T08:20:47.207Z,8.07
2023-04-19T08:21:50.072Z,8.02
2023-04-19T08:22:54.108Z,7.97
2023-04-19T08:23:56.868Z,7.92
2023-04-19T08:24:58.784Z,7.86
2023-04-19T08:26:01.555Z,7.80
2023-04-19T08:27:03.458Z,7.72
2023-04-19T08:28:06.591Z,7.66
2023-04-19T08:29:09.419Z,7.60
2023-04-19T08:30:13.131Z,7.56
2023-04-19T08:31:15.946Z,7.56
2023-04-19T08:32:18.829Z,7.54
2023-04-19T08:33:20.722Z,7.53
2023-04-19T08:34:23.551Z,7.51
2023-04-19T08:35:26.800Z,7.49
2023-04-19T08:36:39.025Z,7.47
2023-04-19T08:37:42.201Z,7.45
2023-04-19T08:38:49.183Z,7.46
2023-04-19T08:39:57.698Z,7.47
2023-04-19T08:40:59.765Z,7.50
2023-04-19T08:42:12.544Z,7.54
2023-04-19T08:43:20.893Z,7.63
2023-04-19T08:44:35.478Z,7.69
2023-04-19T08:45:39.606Z,7.76
2023-04-19T08:46:42.987Z,7.82
2023-04-19T08:47:58.683Z,7.86
2023-04-19T08:49:05.908Z,7.86
2023-04-19T08:50:20.589Z,7.89
2023-04-19T08:51:32.955Z,7.91
2023-04-19T08:52:51.760Z,7.94
2023-04-19T08:53:57.769Z,7.98
2023-04-19T08:55:02.674Z,8.04
2023-04-19T08:56:12.670Z,8.08
2023-04-19T08:57:16.873Z,8.14
2023-04-19T08:58:30.592Z,8.20
2023-04-19T08:59:40.655Z,8.25
2023-04-19T09:00:42.489Z,8.31
2023-04-19T09:01:45.640Z,8.36
2023-04-19T09:02:48.786Z,8.39
2023-04-19T09:04:03.429Z,8.44
2023-04-19T09:05:15.947Z,8.50
2023-04-19T09:06:18.016Z,8.53
2023-04-19T09:07:24.827Z,8.58
2023-04-19T09:08:28.923Z,8.60
2023-04-19T09:09:39.092Z,8.67
2023-04-19T09:10:53.754Z,8.76
2023-04-19T09:11:57.201Z,8.80
2023-04-19T09:13:03.014Z,8.84
2023-04-19T09:14:09.933Z,8.85
2023-04-19T09:15:13.470Z,8.87
2023-04-19T09:16:26.064Z,8.89
2023-04-19T09:17:28.005Z,8.88
2023-04-19T09:18:33.109Z,8.91
2023-04-19T09:19:46.677Z,8.97
2023-04-19T09:20:49.586Z,9.00
2023-04-19T09:21:54.213Z,9.01
2023-04-19T09:23:04.683Z,9.07
2023-04-19T09:24:08.627Z,9.12
2023-04-19T09:25:46.483Z,9.18
2023-04-19T09:26:55.608Z,9.21
2023-04-19T09:28:09.132Z,9.27
2023-04-19T09:29:14.891Z,9.30
2023-04-19T09:30:32.338Z,9.36
2023-04-19T09:32:47.980Z,9.51
2023-04-19T09:33:51.108Z,9.57
2023-04-19T09:34:55.735Z,9.62
2023-04-19T09:35:58.842Z,9.63
2023-04-19T09:37:21.321Z,9.68
2023-04-19T09:38:30.908Z,9.77
2023-04-19T09:39:36.056Z,9.84
2023-04-19T09:40:41.592Z,9.95
2023-04-19T09:41:54.012Z,10.04
2023-04-19T09:44:50.179Z,10.27
2023-04-19T09:45:41.833Z,10.39
2023-04-19T09:46:45.611Z,10.42
2023-04-19T09:48:02.309Z,10.49
2023-04-19T09:49:25.131Z,10.61
2023-04-19T09:50:34.007Z,10.72
2023-04-19T09:51:40.701Z,10.82
2023-04-19T09:52:44.195Z,10.89
2023-04-19T09:53:46.973Z,10.94
2023-04-19T09:54:54.056Z,10.99
2023-04-19T09:56:02.063Z,11.06
2023-04-19T09:57:04.875Z,11.09
2023-04-19T09:58:07.722Z,11.11
2023-04-19T09:59:20.281Z,11.14
2023-04-19T10:00:24.405Z,11.15
2023-04-19T10:01:29.549Z,11.21
2023-04-19T10:02:32.469Z,11.22
2023-04-19T10:03:35.680Z,11.27
2023-04-19T10:05:47.185Z,11.44
2023-04-19T10:07:14.017Z,11.49
2023-04-19T10:08:14.651Z,11.64
2023-04-19T10:09:17.928Z,11.79
2023-04-19T10:10:27.626Z,11.95
2023-04-19T10:11:51.253Z,12.16
2023-04-19T10:13:16.178Z,12.23
2023-04-19T10:14:24.475Z,12.26
2023-04-19T10:15:33.901Z,12.23
2023-04-19T10:16:46.284Z,12.15
2023-04-19T10:17:49.528Z,12.10
2023-04-19T10:18:53.336Z,12.04
2023-04-19T10:20:06.896Z,11.96
2023-04-19T10:21:12.079Z,11.84
2023-04-19T10:22:15.152Z,11.72
2023-04-19T10:23:18.553Z,11.59
2023-04-19T10:24:23.232Z,11.48
2023-04-19T10:25:29.827Z,11.34
2023-04-19T10:27:19.809Z,11.13
2023-04-19T10:28:23.781Z,10.85
2023-04-19T10:30:00.201Z,10.69
2023-04-19T10:31:04.597Z,10.47
2023-04-19T10:32:06.848Z,10.39
2023-04-19T10:33:09.746Z,10.27
2023-04-19T10:34:12.706Z,10.16
2023-04-19T10:35:19.960Z,10.10
2023-04-19T10:36:23.348Z,10.06
2023-04-19T10:37:26.236Z,10.00
2023-04-19T10:38:39.726Z,9.92
2023-04-19T10:39:43.507Z,9.84
2023-04-19T10:41:01.643Z,9.75
2023-04-19T10:42:04.645Z,9.65
2023-04-19T10:43:16.352Z,9.57
2023-04-19T10:44:20.567Z,9.53
2023-04-19T10:45:34.774Z,9.47
2023-04-19T10:46:39.919Z,9.43
2023-04-19T10:47:42.107Z,9.40
2023-04-19T10:48:55.099Z,9.40
2023-04-19T10:49:56.984Z,9.37
2023-04-19T10:51:00.675Z,9.34
2023-04-19T10:52:03.517Z,9.31
2023-04-19T10:53:35.071Z,9.31
2023-04-19T10:54:40.008Z,9.26
2023-04-19T10:55:50.540Z,9.25
2023-04-19T10:57:02.037Z,9.25
2023-04-19T10:58:06.340Z,9.24
2023-04-19T10:59:24.120Z,9.23
2023-04-19T11:00:31.514Z,9.22
2023-04-19T11:01:33.974Z,9.18
2023-04-19T11:02:37.003Z,9.16
2023-04-19T11:03:52.178Z,9.13
2023-04-19T11:05:05.447Z,9.13
2023-04-19T11:06:16.892Z,9.10
2023-04-19T11:07:21.365Z,9.07
2023-04-19T11:08:25.629Z,9.06
2023-04-19T11:09:28.869Z,9.05
2023-04-19T11:10:32.136Z,9.05
2023-04-19T11:11:35.208Z,9.05
2023-04-19T11:12:39.408Z,9.04
2023-04-19T11:13:42.130Z,9.03
2023-04-19T11:14:46.601Z,9.05
2023-04-19T11:15:50.753Z,9.08
2023-04-19T11:16:52.652Z,9.10
2023-04-19T11:18:11.510Z,9.11
2023-04-19T11:19:15.597Z,9.12
2023-04-19T11:20:18.645Z,9.14
2023-04-19T11:21:20.667Z,9.13
2023-04-19T11:22:27.929Z,9.13
2023-04-19T11:23:30.724Z,9.14
2023-04-19T11:24:35.282Z,9.13
2023-04-19T11:25:38.052Z,9.09
2023-04-19T11:26:42.626Z,9.06
2023-04-19T11:27:46.331Z,9.03
2023-04-19T11:28:48.180Z,9.03
2023-04-19T11:29:50.939Z,8.99
2023-04-19T11:30:55.444Z,8.95
2023-04-19T11:32:01.040Z,8.93
2023-04-19T11:33:03.886Z,8.92
2023-04-19T11:34:06.282Z,8.93
2023-04-19T11:35:10.258Z,8.93
2023-04-19T11:36:12.765Z,8.96
2023-04-19T11:37:15.625Z,8.95
2023-04-19T11:38:18.598Z,8.93
2023-04-19T11:39:21.926Z,8.90
2023-04-19T11:40:27.010Z,8.88
2023-04-19T11:41:28.894Z,8.84
2023-04-19T11:42:31.751Z,8.83
2023-04-19T11:43:34.753Z,8.79
2023-04-19T11:44:37.324Z,8.81
2023-04-19T11:45:40.505Z,8.80
2023-04-19T11:46:59.014Z,8.80
2023-04-19T11:48:01.107Z,8.78
2023-04-19T11:49:03.923Z,8.77
2023-04-19T11:50:36.564Z,8.74
2023-04-19T11:51:42.629Z,8.70
2023-04-19T11:52:50.424Z,8.67
2023-04-19T11:53:52.493Z,8.61
2023-04-19T11:54:55.436Z,8.59
2023-04-19T11:56:07.091Z,8.56
2023-04-19T11:57:10.121Z,8.54
2023-04-19T11:58:29.002Z,8.53
2023-04-19T11:59:32.434Z,8.47
2023-04-19T12:00:35.214Z,8.44
2023-04-19T12:01:38.255Z,8.43
2023-04-19T12:02:44.803Z,8.40
2023-04-19T12:03:49.021Z,8.40
2023-04-19T12:04:52.143Z,8.39
2023-04-19T12:05:56.959Z,8.38
2023-04-19T12:07:00.927Z,8.37
2023-04-19T12:08:05.277Z,8.37
2023-04-19T12:09:09.238Z,8.36
2023-04-19T12:10:12.660Z,8.39
2023-04-19T12:11:15.917Z,8.40
2023-04-19T12:12:32.924Z,8.41
2023-04-19T12:13:36.440Z,8.38
2023-04-19T12:14:39.245Z,8.42
2023-04-19T12:15:41.929Z,8.42
2023-04-19T12:16:45.545Z,8.43
2023-04-19T12:18:00.456Z,8.40
2023-04-19T12:19:12.033Z,8.42
2023-04-19T12:20:14.781Z,8.40
2023-04-19T12:21:27.185Z,8.39
2023-04-19T12:22:30.050Z,8.39
2023-04-19T12:23:31.892Z,8.38
2023-04-19T12:24:34.705Z,8.36
2023-04-19T12:25:37.514Z,8.33
2023-04-19T12:26:55.847Z,8.31
2023-04-19T12:27:58.350Z,8.30
2023-04-19T12:29:02.832Z,8.32
2023-04-19T12:30:07.011Z,8.34
2023-04-19T12:31:08.875Z,8.35
2023-04-19T12:32:12.982Z,8.34
2023-04-19T12:33:17.342Z,8.32
2023-04-19T12:34:19.500Z,8.29
2023-04-19T12:35:23.309Z,8.27
2023-04-19T12:36:26.383Z,8.27
2023-04-19T12:37:28.173Z,8.28
2023-04-19T12:38:31.004Z,8.30
2023-04-19T12:39:32.876Z,8.31
2023-04-19T12:40:35.640Z,8.32
2023-04-19T12:41:37.528Z,8.35
2023-04-19T12:42:40.350Z,8.35
2023-04-19T12:43:42.132Z,8.32
2023-04-19T12:44:45.485Z,8.30
2023-04-19T12:45:47.274Z,8.25
2023-04-19T12:46:50.134Z,8.22
2023-04-19T12:47:53.210Z,8.21
2023-04-19T12:48:56.418Z,8.20
2023-04-19T12:49:59.265Z,8.16
2023-04-19T12:51:01.545Z,8.16
2023-04-19T12:52:04.355Z,8.15
2023-04-19T12:53:06.794Z,8.14
2023-04-19T12:54:09.620Z,8.15
2023-04-19T12:55:11.543Z,8.16
2023-04-19T12:56:15.835Z,8.16
2023-04-19T12:57:17.998Z,8.17
2023-04-19T12:58:21.324Z,8.19
2023-04-19T12:59:24.225Z,8.20
2023-04-19T13:00:27.166Z,8.23
2023-04-19T13:01:28.972Z,8.25
2023-04-19T13:02:32.022Z,8.28
2023-04-19T13:03:36.621Z,8.30
2023-04-19T13:04:41.329Z,8.29
2023-04-19T13:05:44.549Z,8.28
2023-04-19T13:06:46.651Z,8.27
2023-04-19T13:07:49.512Z,8.25
2023-04-19T13:08:51.363Z,8.26
2023-04-19T13:09:56.028Z,8.26
2023-04-19T13:10:59.756Z,8.26
2023-04-19T13:12:03.082Z,8.23
2023-04-19T13:13:05.977Z,8.21
2023-04-19T13:14:07.791Z,8.19
2023-04-19T13:15:11.568Z,8.16
2023-04-19T13:16:14.473Z,8.12
2023-04-19T13:17:16.317Z,8.10
2023-04-19T13:18:19.265Z,8.08
2023-04-19T13:19:22.637Z,8.06
2023-04-19T13:20:26.754Z,8.06
2023-04-19T13:21:29.575Z,8.06
2023-04-19T13:22:31.412Z,8.04
2023-04-19T13:23:34.394Z,8.02
2023-04-19T13:24:37.145Z,8.02
2023-04-19T13:25:39.050Z,7.99
2023-04-19T13:26:41.897Z,7.97
2023-04-19T13:27:43.768Z,7.95
2023-04-19T13:28:46.754Z,7.95
2023-04-19T13:29:48.564Z,7.92
2023-04-19T13:30:51.577Z,7.91
2023-04-19T13:31:53.633Z,7.91
2023-04-19T13:32:56.444Z,7.92
2023-04-19T13:34:00.491Z,7.91
2023-04-19T13:35:03.334Z,7.90
2023-04-19T13:36:07.435Z,7.90
2023-04-19T13:37:10.255Z,7.91
2023-04-19T13:38:12.087Z,7.94
2023-04-19T13:39:14.867Z,7.97
2023-04-19T13:40:19.303Z,8.01
2023-04-19T13:41:22.642Z,8.04
2023-04-19T13:42:25.618Z,8.03
2023-04-19T13:43:27.484Z,8.02
2023-04-19T13:44:30.754Z,8.01
2023-04-19T13:45:32.573Z,7.98
2023-04-19T13:46:35.416Z,7.95
2023-04-19T13:47:37.676Z,7.94
2023-04-19T13:48:40.527Z,7.94
2023-04-19T13:49:42.323Z,7.94
2023-04-19T13:50:45.721Z,7.95
2023-04-19T13:51:50.942Z,7.96
2023-04-19T13:52:53.187Z,7.97
2023-04-19T13:53:56.373Z,7.97
2023-04-19T13:54:58.134Z,8.00
2023-04-19T13:56:00.916Z,8.01
2023-04-19T13:57:03.101Z,8.01
2023-04-19T13:58:05.953Z,8.03
2023-04-19T13:59:07.768Z,8.04
2023-04-19T14:00:11.588Z,8.05
2023-04-19T14:01:13.438Z,8.05
2023-04-19T14:02:16.329Z,8.07
2023-04-19T14:03:18.801Z,8.09
2023-04-19T14:04:22.601Z,8.12
2023-04-19T14:05:24.643Z,8.11
2023-04-19T14:06:27.846Z,8.12
2023-04-19T14:07:31.032Z,8.10
2023-04-19T14:08:33.928Z,8.08
2023-04-19T14:09:36.702Z,8.07
2023-04-19T14:10:40.576Z,8.04
2023-04-19T14:11:42.420Z,8.04
2023-04-19T14:12:45.417Z,8.02
2023-04-19T14:13:48.568Z,8.04
2023-04-19T14:14:51.303Z,8.04
2023-04-19T14:15:53.519Z,8.08
2023-04-19T14:16:56.339Z,8.08
2023-04-19T14:17:58.268Z,8.08
2023-04-19T14:19:01.191Z,8.08
2023-04-19T14:20:06.402Z,8.07
2023-04-19T14:21:10.960Z,8.06
2023-04-19T14:22:13.833Z,8.05
2023-04-19T14:23:16.993Z,8.04
2023-04-19T14:24:20.280Z,8.01